EW2804 Weather Reports


time (UTC)temp
C
wind
direction
speed
KPH
gust
KPH
rain 1hr
cm
rain 24hr
cm
rain mn
cm
humidity
%
barometer
mb
20220525124446 16 266 1.6 9.7 0.00 6.10 0.41 93 1006.8
20220525123427 16 259 3.2 12.9 0.00 6.10 0.41 93 1006.8
20220525122431 16 271 3.2 12.9 0.00 6.10 0.41 93 1006.6
20220525121428 16 281 0.0 8.0 0.00 6.10 0.41 95 1006.4
20220525120405 16 225 0.0 3.2 0.00 6.07 0.36 95 1006.3
20220525115407 16 246 0.0 3.2 0.00 6.07 0.36 95 1006.0
20220525114415 16 234 0.0 1.6 0.00 6.07 0.36 95 1005.7
20220525113358 16 234 0.0 0.0 0.00 6.07 0.36 95 1005.5
20220525112410 16 234 0.0 3.2 0.00 6.07 0.36 95 1005.6
20220525111427 16 238 0.0 6.4 0.00 6.07 0.36 95 1005.6
20220525110421 16 243 1.6 4.8 0.00 6.07 0.36 95 1005.3
20220525105440 16 219 1.6 4.8 0.00 6.07 0.36 95 1005.2
20220525104419 16 257 0.0 3.2 0.00 6.07 0.36 95 1004.9
20220525103424 16 244 0.0 0.0 0.00 6.07 0.36 95 1004.9
20220525102440 16 222 0.0 1.6 0.00 6.07 0.36 95 1004.8
20220525101453 16 240 0.0 3.2 0.00 6.07 0.36 95 1004.9
20220525100448 16 219 0.0 3.2 0.00 6.07 0.36 95 1004.8
20220525095451 16 261 0.0 0.0 0.00 6.07 0.36 95 1004.6
20220525094458 16 261 0.0 3.2 0.00 6.07 0.36 95 1004.5
20220525093436 16 294 0.0 4.8 0.00 6.07 0.36 95 1004.6
20220525092422 16 255 0.0 4.8 0.00 6.05 0.36 95 1004.7
20220525091433 16 223 0.0 3.2 0.00 6.05 0.36 95 1004.8
20220525090444 16 254 0.0 4.8 0.00 6.05 0.36 95 1005.1
20220525085417 16 245 1.6 6.4 0.00 6.02 0.33 95 1005.2
20220525084401 16 261 0.0 6.4 0.00 6.02 0.33 95 1005.4
20220525083418 16 290 0.0 9.7 0.00 6.02 0.33 95 1005.6
20220525082421 16 239 3.2 9.7 0.00 6.05 0.33 95 1005.7
20220525081429 16 245 0.0 6.4 0.00 6.05 0.33 95 1005.2
20220525080443 16 265 1.6 9.7 0.00 6.05 0.33 95 1004.9
20220525075426 16 257 3.2 8.0 0.00 6.05 0.33 95 1005.5
20220525074401 16 128 0.0 6.4 0.00 6.10 0.33 95 1005.7
20220525073347 16 254 1.6 6.4 0.00 6.10 0.33 95 1004.9
20220525072352 16 231 1.6 8.0 0.00 6.10 0.33 95 1004.5
20220525071326 16 147 1.6 19.3 0.00 6.10 0.33 95 1004.1
20220525070324 16 107 3.2 19.3 0.00 6.10 0.33 95 1001.6
20220525065340 16 32 1.6 17.7 0.00 6.10 0.33 95 1001.2
20220525064316 16 232 0.0 0.0 0.00 6.07 0.30 95 1004.0
20220525063252 16 232 0.0 0.0 0.10 6.07 0.30 95 1004.9
20220525062304 16 232 0.0 0.0 0.20 6.07 0.30 95 1005.5
20220525061253 17 232 0.0 0.0 0.28 6.05 0.28 95 1006.5
20220525060246 17 232 0.0 1.6 0.36 5.99 0.23 95 1007.0
20220525055219 17 227 0.0 3.2 0.58 5.92 0.15 95 1007.4
20220525054223 17 227 0.0 3.2 0.23 5.84 0.08 95 1007.6
20220525053209 17 194 0.0 0.0 0.20 5.79 0.05 95 1007.6
20220525052226 17 152 0.0 0.0 0.00 5.77 0.00 95 1007.5
20220525051234 17 126 0.0 0.0 0.00 5.77 0.00 95 1007.4
20220525050221 17 126 0.0 0.0 0.00 5.77 0.00 95 1007.3
20220525045221 17 126 0.0 0.0 0.10 5.77 5.77 95 1007.4
20220525044155 17 126 0.0 1.6 0.10 5.77 5.77 95 1007.0
20220525043119 17 104 0.0 0.0 0.18 5.74 5.74 95 1006.6
20220525042102 17 104 0.0 1.6 0.20 5.71 5.71 95 1006.7
20220525041108 17 104 0.0 1.6 0.28 5.71 5.69 95 1007.0
20220525040044 17 104 0.0 0.0 0.41 5.64 5.61 94 1007.2
20220525035032 17 114 0.0 0.0 0.15 5.56 5.56 94 1007.5
20220525034051 17 113 0.0 0.0 0.23 5.51 5.54 94 1007.8
20220525033100 17 113 0.0 1.6 0.48 5.46 5.46 94 1007.7
20220525032034 17 107 0.0 3.2 0.36 5.38 5.36 94 1007.2
20220525031002 17 107 0.0 1.6 0.33 5.31 5.31 94 1007.4
20220525025937 17 129 0.0 1.6 0.20 5.28 5.26 94 1007.6
20220525024927 17 116 0.0 0.0 0.10 5.26 5.21 94 1007.4
20220525023851 17 120 0.0 0.0 0.18 5.26 5.21 94 1007.7
20220525022832 17 109 0.0 0.0 0.20 5.23 5.18 94 1008.2
20220525021841 17 90 0.0 0.0 0.33 5.16 5.16 94 1007.7
20220525020841 17 90 0.0 3.2 0.79 5.11 5.08 94 1007.6
20220525015857 17 203 1.6 12.9 0.74 4.95 4.95 94 1008.3
20220525014920 17 109 1.6 6.4 2.11 4.83 4.83 94 1009.0
20220525013928 17 233 0.0 4.8 0.00 4.52 4.47 94 1007.4
20220525012931 17 5 0.0 8.0 0.10 4.52 4.47 94 1006.3
20220525011911 17 39 0.0 12.9 0.10 4.52 4.47 94 1006.0
20220525010839 17 15 3.2 14.5 0.20 4.50 4.47 94 1005.3
20220525005816 17 321 1.6 14.5 1.55 4.39 4.45 93 1005.1
20220525004823 17 28 1.6 8.0 0.97 4.24 4.24 93 1005.5
20220525003834 17 59 3.2 14.5 0.25 4.14 4.11 93 1005.1
20220525002852 17 57 1.6 14.5 0.10 4.09 4.06 93 1004.8
20220525001822 17 61 3.2 14.5 0.13 4.09 4.06 93 1004.8
20220525000808 17 38 3.2 14.5 0.28 4.06 4.04 93 1004.6
20220524235818 17 328 4.8 24.1 0.97 3.99 3.99 92 1004.9
20220524234744 17 5 8.0 24.1 3.25 3.78 3.84 92 1005.1
20220524233736 17 288 9.7 27.4 3.15 3.17 3.23 91 1005.5
20220524232716 18 346 8.0 27.4 19.25 1.68 2.06 85 1005.9
20220524231642 21 304 0.0 9.7 0.00 1.30 1.24 82 1004.2
20220524230636 21 92 0.0 9.7 0.00 1.30 1.24 81 1003.5
20220524225658 21 68 0.0 6.4 0.00 1.30 1.24 81 1003.5
20220524224705 21 71 0.0 9.7 0.00 1.30 1.24 81 1003.6
20220524223644 22 70 0.0 8.0 0.00 1.30 1.24 81 1003.6
20220524222700 22 342 1.6 11.3 0.00 1.30 1.24 80 1003.4
20220524221645 22 78 3.2 11.3 0.00 1.30 1.24 81 1003.5
20220524220612 21 133 0.0 6.4 0.00 1.30 1.24 82 1003.9
20220524215603 21 44 0.0 6.4 0.00 1.30 1.24 83 1004.2
20220524214613 21 17 1.6 6.4 0.00 1.30 1.24 83 1004.6
20220524213614 21 93 0.0 4.8 0.00 1.30 1.24 84 1004.9
20220524212637 21 126 0.0 4.8 0.00 1.30 1.24 84 1005.1
20220524211607 21 110 0.0 9.7 0.00 1.30 1.24 85 1005.2
20220524210538 20 34 1.6 9.7 0.00 1.30 1.24 86 1005.3
20220524205506 20 101 0.0 3.2 0.00 1.30 1.24 88 1005.5
20220524204431 20 96 0.0 6.4 0.00 1.30 1.24 87 1005.8
20220524203428 20 46 0.0 6.4 0.00 1.30 1.24 89 1005.9
20220524202420 20 122 0.0 4.8 0.00 1.30 1.24 88 1006.2
20220524201432 20 51 1.6 6.4 0.00 1.30 1.24 88 1006.3
20220524200429 20 117 1.6 8.0 0.00 1.30 1.24 88 1006.4
20220524195409 20 34 1.6 8.0 0.00 1.30 1.24 89 1006.6
20220524194405 19 94 1.6 6.4 0.00 1.30 1.24 90 1006.7
20220524193419 19 68 0.0 4.8 0.00 1.30 1.24 92 1006.7
20220524192348 19 179 0.0 9.7 0.00 1.30 1.24 91 1006.9
20220524191353 19 58 0.0 9.7 0.00 1.30 1.24 91 1007.0
20220524190316 18 18 1.6 9.7 0.00 1.30 1.24 92 1007.2
20220524185320 18 15 1.6 4.8 0.00 1.30 1.24 92 1007.3
20220524184334 18 64 1.6 6.4 0.00 1.30 1.24 92 1007.7
20220524183344 18 50 0.0 6.4 0.00 1.30 1.24 92 1007.7
20220524182349 18 355 0.0 4.8 0.00 1.30 1.24 92 1008.0
20220524181325 18 91 0.0 6.4 0.00 1.30 1.24 93 1007.7
20220524180330 18 44 1.6 6.4 0.00 1.27 1.22 93 1007.8
20220524175347 18 5 0.0 4.8 0.20 1.27 1.22 93 1007.9
20220524174320 18 96 0.0 3.2 0.13 1.22 1.17 93 1007.8
20220524173330 18 22 1.6 8.0 0.13 1.22 1.17 93 1007.9
20220524172334 17 32 3.2 12.9 0.36 1.19 1.14 92 1007.9
20220524171305 17 36 4.8 17.7 0.41 1.12 1.09 92 1008.1
20220524170258 17 36 4.8 17.7 2.08 0.91 0.94 91 1008.1
20220524165313 17 337 3.2 14.5 1.65 0.66 0.71 90 1008.3
20220524164313 18 275 4.8 19.3 0.41 0.23 0.20 89 1008.8
20220524163335 19 21 6.4 22.5 0.00 0.13 0.08 84 1008.5
20220524162345 21 292 1.6 22.5 0.00 0.13 0.08 80 1007.8
20220524161348 22 205 0.0 8.0 0.00 0.13 0.08 85 1007.4
20220524160332 22 129 3.2 12.9 0.00 0.13 0.08 84 1007.6
20220524155305 22 115 1.6 12.9 0.00 0.13 0.08 84 1007.9
20220524154313 22 186 1.6 9.7 0.00 0.13 0.08 84 1008.1
20220524153257 22 165 1.6 11.3 0.00 0.13 0.08 84 1008.2
20220524152255 22 175 1.6 11.3 0.00 0.13 0.08 84 1008.2
20220524151250 22 130 3.2 12.9 0.00 0.13 0.08 84 1008.2
20220524150224 22 103 3.2 14.5 0.00 0.13 0.08 83 1008.0
20220524145148 22 213 4.8 14.5 0.00 0.13 0.08 85 1007.5
20220524144141 21 126 3.2 14.5 0.00 0.13 0.08 86 1007.3
20220524143112 21 130 3.2 12.9 0.00 0.13 0.08 86 1007.4
20220524142057 21 72 3.2 11.3 0.00 0.13 0.08 87 1007.4
20220524141046 21 127 3.2 12.9 0.00 0.13 0.08 87 1007.6
20220524140010 21 184 3.2 16.1 0.00 0.13 0.08 88 1007.7
20220524135026 21 116 3.2 16.1 0.00 0.13 0.08 88 1008.0
20220524134007 20 154 3.2 12.9 0.00 0.13 0.08 88 1008.1
20220524133027 20 178 3.2 11.3 0.00 0.13 0.08 88 1008.1
20220524132008 20 107 3.2 11.3 0.00 0.13 0.08 88 1008.0
20220524131005 20 120 3.2 11.3 0.00 0.13 0.08 89 1007.9
20220524130023 20 136 1.6 9.7 0.00 0.13 0.08 89 1008.1